Time,TemperatureF,DewpointF,PressureIn,WindDirection,WindDirectionDegrees,WindSpeedMPH,WindSpeedGustMPH,Humidity,HourlyPrecipIn,Conditions,Clouds,dailyrainin,SoftwareType,DateUTC
2013-08-15 00:00:00,60.5,49.5,29.90,North,0,2.0,9.0,67,0.00,,SKC,0.00,VWS V13.01,2013-08-15 04:00:00,
2013-08-15 00:30:00,60.6,50.0,29.91,North,0,2.0,11.0,68,0.00,,SKC,0.00,VWS V13.01,2013-08-15 04:30:00,
2013-08-15 01:00:00,59.9,50.1,29.92,North,0,1.0,4.0,70,0.00,,SKC,0.00,VWS V13.01,2013-08-15 05:00:00,
2013-08-15 01:30:00,59.5,50.1,29.92,North,0,1.0,5.0,71,0.00,,SKC,0.00,VWS V13.01,2013-08-15 05:30:00,
2013-08-15 02:00:00,58.1,50.6,29.93,North,0,0.0,1.0,76,0.00,,SKC,0.00,VWS V13.01,2013-08-15 06:00:00,
2013-08-15 02:30:00,58.4,51.6,29.94,North,0,0.0,3.0,78,0.00,,SKC,0.00,VWS V13.01,2013-08-15 06:30:00,
2013-08-15 03:00:00,58.4,52.3,29.95,North,0,0.0,3.0,80,0.00,,SKC,0.00,VWS V13.01,2013-08-15 07:00:00,
2013-08-15 03:30:00,57.8,52.3,29.95,NNW,338,1.0,6.0,82,0.00,,SKC,0.00,VWS V13.01,2013-08-15 07:30:00,
2013-08-15 04:00:00,57.5,51.7,29.95,West,270,1.0,4.0,81,0.00,,SKC,0.00,VWS V13.01,2013-08-15 08:00:00,
2013-08-15 04:30:00,58.0,51.9,29.96,West,270,1.0,7.0,80,0.00,,SKC,0.00,VWS V13.01,2013-08-15 08:30:00,
2013-08-15 05:00:00,57.4,51.6,29.97,NNW,338,0.0,5.0,81,0.00,,SKC,0.00,VWS V13.01,2013-08-15 09:00:00,
2013-08-15 05:30:00,56.4,51.3,29.99,West,270,0.0,5.0,83,0.00,,SKC,0.00,VWS V13.01,2013-08-15 09:30:00,
2013-08-15 06:00:00,56.9,51.5,30.00,WSW,248,1.0,6.0,82,0.00,,SKC,0.00,VWS V13.01,2013-08-15 10:00:00,
2013-08-15 06:30:00,57.1,51.7,30.01,West,270,1.0,4.0,82,0.00,,SKC,0.00,VWS V13.01,2013-08-15 10:30:00,
2013-08-15 07:00:00,58.3,51.8,30.02,WNW,292,1.0,6.0,79,0.00,,SKC,0.00,VWS V13.01,2013-08-15 11:00:00,
2013-08-15 07:30:00,59.2,52.0,30.03,SW,225,1.0,6.0,77,0.00,,SKC,0.00,VWS V13.01,2013-08-15 11:30:00,
2013-08-15 08:00:00,60.6,51.5,30.04,WSW,248,1.0,6.0,72,0.00,,SKC,0.00,VWS V13.01,2013-08-15 12:00:00,
2013-08-15 08:30:00,62.5,52.2,30.03,West,270,2.0,7.0,69,0.00,,SKC,0.00,VWS V13.01,2013-08-15 12:30:00,
2013-08-15 09:00:00,64.8,53.6,30.03,West,270,2.0,7.0,67,0.00,,SKC,0.00,VWS V13.01,2013-08-15 13:00:00,
2013-08-15 09:30:00,66.2,53.7,30.03,WSW,248,2.0,6.0,64,0.00,,SKC,0.00,VWS V13.01,2013-08-15 13:30:00,
2013-08-15 10:00:00,66.7,53.3,30.03,WSW,248,2.0,7.0,62,0.00,,SKC,0.00,VWS V13.01,2013-08-15 14:00:00,
2013-08-15 10:30:00,67.9,54.0,30.04,West,270,2.0,9.0,61,0.00,,SKC,0.00,VWS V13.01,2013-08-15 14:30:00,
2013-08-15 11:00:00,68.7,54.3,30.03,West,270,3.0,8.0,60,0.00,,SKC,0.00,VWS V13.01,2013-08-15 15:00:00,
2013-08-15 11:30:00,69.8,54.4,30.03,West,270,3.0,10.0,58,0.00,,SKC,0.00,VWS V13.01,2013-08-15 15:30:00,
2013-08-15 12:00:00,70.0,55.0,30.03,West,270,4.0,10.0,59,0.00,,SKC,0.00,VWS V13.01,2013-08-15 16:00:00,
2013-08-15 12:30:00,71.0,54.0,30.02,WSW,248,3.0,11.0,55,0.00,,SKC,0.00,VWS V13.01,2013-08-15 16:30:00,
2013-08-15 13:00:00,71.4,54.4,30.02,West,270,4.0,9.0,55,0.00,,SKC,0.00,VWS V13.01,2013-08-15 17:00:00,
2013-08-15 13:30:00,72.0,55.5,30.01,SSW,202,4.0,10.0,56,0.00,,SKC,0.00,VWS V13.01,2013-08-15 17:30:00,
2013-08-15 14:00:00,71.5,56.0,30.01,SSW,202,5.0,12.0,58,0.00,,SKC,0.00,VWS V13.01,2013-08-15 18:00:00,
2013-08-15 14:30:00,71.6,56.1,30.00,SSW,202,4.0,11.0,58,0.00,,SKC,0.00,VWS V13.01,2013-08-15 18:30:00,
2013-08-15 15:00:00,72.2,56.1,30.01,SSW,202,4.0,11.0,57,0.00,,SKC,0.00,VWS V13.01,2013-08-15 19:00:00,
2013-08-15 15:30:00,72.3,54.7,30.01,SW,225,4.0,10.0,54,0.00,,SKC,0.00,VWS V13.01,2013-08-15 19:30:00,
2013-08-15 16:00:00,72.7,56.6,30.01,SSW,202,2.0,7.0,57,0.00,,SKC,0.00,VWS V13.01,2013-08-15 20:00:00,
2013-08-15 16:30:00,72.1,56.0,30.00,SSW,202,3.0,10.0,57,0.00,,SKC,0.00,VWS V13.01,2013-08-15 20:30:00,
2013-08-15 17:00:00,72.3,58.1,30.00,SW,225,3.0,7.0,61,0.00,,SKC,0.00,VWS V13.01,2013-08-15 21:00:00,
2013-08-15 17:30:00,72.4,57.8,30.00,SW,225,3.0,7.0,60,0.00,,SKC,0.00,VWS V13.01,2013-08-15 21:30:00,
2013-08-15 18:00:00,72.3,58.1,30.00,WSW,248,2.0,6.0,61,0.00,,SKC,0.00,VWS V13.01,2013-08-15 22:00:00,
2013-08-15 18:30:00,69.9,58.5,30.00,SW,225,2.0,6.0,67,0.00,,SKC,0.00,VWS V13.01,2013-08-15 22:30:00,
2013-08-15 19:00:00,67.4,58.1,30.01,WSW,248,1.0,7.0,72,0.00,,SKC,0.00,VWS V13.01,2013-08-15 23:00:00,
2013-08-15 19:30:00,65.3,57.9,30.03,WSW,248,0.0,3.0,77,0.00,,SKC,0.00,VWS V13.01,2013-08-15 23:30:00,
2013-08-15 20:00:00,63.5,57.2,30.04,WSW,248,0.0,1.0,80,0.00,,SKC,0.00,VWS V13.01,2013-08-16 00:00:00,
2013-08-15 20:30:00,63.4,57.1,30.06,WSW,248,0.0,3.0,80,0.00,,SKC,0.00,VWS V13.01,2013-08-16 00:30:00,
2013-08-15 21:00:00,62.6,57.0,30.07,SW,225,0.0,5.0,82,0.00,,SKC,0.00,VWS V13.01,2013-08-16 01:00:00,
2013-08-15 21:30:00,62.5,58.3,30.08,WSW,248,1.0,7.0,86,0.00,,SKC,0.00,VWS V13.01,2013-08-16 01:30:00,
2013-08-15 22:00:00,61.2,57.0,30.08,SW,225,0.0,3.0,86,0.00,,SKC,0.00,VWS V13.01,2013-08-16 02:00:00,
2013-08-15 22:30:00,61.2,57.0,30.08,SW,225,0.0,3.0,86,0.00,,SKC,0.00,VWS V13.01,2013-08-16 02:30:00,
2013-08-15 23:00:00,60.0,56.1,30.09,SW,225,0.0,0.0,87,0.00,,SKC,0.00,VWS V13.01,2013-08-16 03:00:00,
2013-08-15 23:30:00,59.0,55.5,30.09,SW,225,0.0,0.0,88,0.00,,SKC,0.00,VWS V13.01,2013-08-16 03:30:00,